Pagrindinis puslapis
METAR-TAF:

METAR-TAF

Oro uostai :

Luganas, Šveicarija

platuma: 46-00N, ilguma: 008-58E, Aukštis: 273 m

Dabartinis oras

Ataskaita buvo paskelbta 19 minutes, ne 02:50 UTC
Vėjas 1 kt nuo kintamojo kryptimis
Temperatūra 4°C
Drėgmė 87%
Slėgis 1022 hPa
Matomumas 10 km arba daugiau
Mažai debesys ne aukštis 9000 ft
Su prošvaistėmis ne aukštis 10000 ft

METAR: LSZA 180250Z AUTO VRB01KT 9999 FEW090 BKN100 04/02 Q1022

Laikas: 04:09 (03:09 UTC)

Prognozė

Ataskaita buvo paskelbta 12 valandos ir 44 minutes, ne 14:25 UTC
Prognozė galioja nuo 17 metu 15 UTC su 17 metu 24 UTC
Vėjas 3 kt nuo kintamojo kryptimis
Matomumas 10 km arba daugiau
Su prošvaistėmis ne aukštis 6500 ft
Laikinai
nuo 17 metu 19 UTC su 17 metu 24 UTC
lietus

TAF: LSZA 171425Z 1715/1724 VRB03KT 9999 BKN065 TEMPO 1719/1724 -RA

Orai ataskaitas ir orų prognozės (METAR, TAF).

turimą stotys yra geltonos ir raudonos taškus žemėlapyje.

Perkelti pele per norėdami pamatyti stoties vardą.

Tada spustelėkite, norėdami matyti oro stebėjimo ir prognozės.

Norėdami pakeisti žemėlapį: spustelėkite ant žalios mygtukų su juodo kryžiaus žemyn,; žalią mygtuką su brūkšneliu, jei norite nutolinti; arba žalių rodyklių gretimoms žemėlapius.


METAR-TAF: